createdAt,value
2022-11-14T00:00:07.223Z,101582.81
2022-11-14T00:02:33.476Z,101580.44
2022-11-14T00:04:59.714Z,101589.06
2022-11-14T00:07:25.996Z,101580.84
2022-11-14T00:09:52.246Z,101582.03
2022-11-14T00:12:18.478Z,101574.03
2022-11-14T00:14:44.698Z,101568.44
2022-11-14T00:17:10.896Z,101573.44
2022-11-14T00:19:37.100Z,101562.44
2022-11-14T00:22:03.304Z,101565.06
2022-11-14T00:24:29.502Z,101563.66
2022-11-14T00:26:55.704Z,101554.66
2022-11-14T00:29:21.968Z,101553.66
2022-11-14T00:31:48.180Z,101540.03
2022-11-14T00:34:14.416Z,101530.44
2022-11-14T00:36:40.637Z,101534.03
2022-11-14T00:39:06.829Z,101532.44
2022-11-14T00:41:33.044Z,101534.03
2022-11-14T00:43:59.244Z,101537.03
2022-11-14T00:46:25.447Z,101527.22
2022-11-14T00:48:51.655Z,101519.25
2022-11-14T00:51:17.869Z,101518.03
2022-11-14T00:53:44.073Z,101517.06
2022-11-14T00:56:10.279Z,101507.66
2022-11-14T00:58:36.479Z,101518.03
2022-11-14T01:01:02.698Z,101503.63
2022-11-14T01:03:28.896Z,101507.44
2022-11-14T01:05:55.105Z,101501.66
2022-11-14T01:08:21.314Z,101504.41
2022-11-14T01:10:49.097Z,101505.06
2022-11-14T01:13:15.480Z,101496.47
2022-11-14T01:15:42.268Z,101493.41
2022-11-14T01:18:10.199Z,101497.44
2022-11-14T01:20:38.104Z,101494.22
2022-11-14T01:23:04.308Z,101484.25
2022-11-14T01:25:32.368Z,101489.44
2022-11-14T01:27:58.595Z,101491.22
2022-11-14T01:30:24.813Z,101485.84
2022-11-14T01:32:51.007Z,101489.41
2022-11-14T01:35:17.214Z,101479.22
2022-11-14T01:37:43.412Z,101472.41
2022-11-14T01:40:09.935Z,101467.03
2022-11-14T01:42:36.153Z,101468.38
2022-11-14T01:45:22.301Z,101466.44
2022-11-14T01:47:48.502Z,101463.84
2022-11-14T01:50:14.707Z,101457.81
2022-11-14T01:52:40.913Z,101463.81
2022-11-14T01:55:07.685Z,101454.00
2022-11-14T01:57:35.152Z,101455.81
2022-11-14T02:00:02.045Z,101453.81
2022-11-14T02:02:28.243Z,101444.44
2022-11-14T02:04:59.171Z,101435.63
2022-11-14T02:07:25.482Z,101436.22
2022-11-14T02:09:51.724Z,101425.81
2022-11-14T02:12:18.125Z,101421.41
2022-11-14T02:14:44.559Z,101427.00
2022-11-14T02:20:05.398Z,101412.81
2022-11-14T02:22:31.932Z,101410.25
2022-11-14T02:24:58.129Z,101415.22
2022-11-14T02:27:24.356Z,101402.25
2022-11-14T02:29:50.559Z,101403.66
2022-11-14T02:32:16.777Z,101402.03
2022-11-14T02:34:42.971Z,101400.03
2022-11-14T02:37:09.182Z,101397.84
2022-11-14T02:39:35.385Z,101387.66
2022-11-14T02:42:01.612Z,101379.88
2022-11-14T02:44:27.816Z,101385.66
2022-11-14T02:46:54.020Z,101371.88
2022-11-14T02:49:20.220Z,101376.84
2022-11-14T02:51:46.438Z,101360.47
2022-11-14T02:54:12.652Z,101361.69
2022-11-14T02:56:38.855Z,101364.25
2022-11-14T02:59:05.061Z,101356.28
2022-11-14T03:01:31.318Z,101357.28
2022-11-14T03:03:57.561Z,101350.50
2022-11-14T03:06:23.784Z,101346.09
2022-11-14T03:08:49.981Z,101343.88
2022-11-14T03:11:16.185Z,101338.69
2022-11-14T03:13:42.398Z,101341.06
2022-11-14T03:16:09.251Z,101334.28
2022-11-14T03:48:50.936Z,101277.56
2022-11-14T04:07:31.346Z,101245.00
2022-11-14T04:10:26.392Z,101242.81
2022-11-14T04:22:27.114Z,101226.22
2022-11-14T04:37:13.226Z,101209.03
2022-11-14T04:42:36.936Z,101199.66
2022-11-14T04:45:24.699Z,101198.66
2022-11-14T04:48:10.118Z,101199.66
2022-11-14T04:50:41.340Z,101192.69
2022-11-14T04:53:36.906Z,101192.47
2022-11-14T04:56:05.548Z,101192.47
2022-11-14T04:58:32.092Z,101196.22
2022-11-14T05:00:58.526Z,101194.09
2022-11-14T05:03:25.092Z,101187.66
2022-11-14T05:05:51.354Z,101189.06
2022-11-14T05:08:17.594Z,101187.88
2022-11-14T05:10:44.047Z,101183.50
2022-11-14T05:13:13.123Z,101185.28
2022-11-14T05:15:39.354Z,101180.88
2022-11-14T05:18:05.605Z,101182.88
2022-11-14T05:20:31.838Z,101172.69
2022-11-14T05:22:58.105Z,101172.91
2022-11-14T05:25:24.349Z,101176.47
2022-11-14T05:27:53.333Z,101161.88
2022-11-14T05:30:19.541Z,101168.53
2022-11-14T05:32:45.779Z,101151.94
2022-11-14T05:35:11.984Z,101152.75
2022-11-14T05:37:38.194Z,101149.16
2022-11-14T05:40:04.875Z,101142.97
2022-11-14T05:42:31.085Z,101136.00
2022-11-14T05:44:57.309Z,101128.41
2022-11-14T05:47:23.577Z,101122.81
2022-11-14T05:49:49.793Z,101127.19
2022-11-14T05:52:15.994Z,101135.59
2022-11-14T05:54:42.201Z,101130.38
2022-11-14T05:57:08.409Z,101131.19
2022-11-14T05:59:34.630Z,101132.00
2022-11-14T06:02:00.884Z,101129.59
2022-11-14T06:04:27.186Z,101132.97
2022-11-14T06:06:53.436Z,101127.00
2022-11-14T06:09:19.732Z,101126.22
2022-11-14T06:11:45.932Z,101124.00
2022-11-14T06:14:12.131Z,101130.38
2022-11-14T06:16:38.326Z,101123.19
2022-11-14T06:19:04.541Z,101133.97
2022-11-14T06:21:30.746Z,101117.38
2022-11-14T06:23:56.948Z,101113.00
2022-11-14T06:26:23.928Z,101118.56
2022-11-14T06:28:50.364Z,101124.91
2022-11-14T06:31:16.721Z,101128.94
2022-11-14T06:33:42.937Z,101127.94
2022-11-14T06:36:09.168Z,101128.53
2022-11-14T06:38:36.156Z,101115.41
2022-11-14T06:41:12.590Z,101107.00
2022-11-14T06:43:42.499Z,101116.97
2022-11-14T06:46:09.303Z,101110.78
2022-11-14T06:48:35.521Z,101118.16
2022-11-14T06:51:01.786Z,101113.59
2022-11-14T06:53:28.451Z,101111.00
2022-11-14T06:55:54.613Z,101118.00
2022-11-14T06:58:20.815Z,101114.84
2022-11-14T07:00:47.031Z,101115.44
2022-11-14T07:03:13.275Z,101123.63
2022-11-14T07:05:39.548Z,101128.41
2022-11-14T07:08:05.746Z,101128.81
2022-11-14T07:10:31.952Z,101119.25
2022-11-14T07:12:58.158Z,101122.84
2022-11-14T07:15:24.371Z,101125.03
2022-11-14T07:17:50.583Z,101127.63
2022-11-14T07:20:16.830Z,101125.44
2022-11-14T07:22:43.032Z,101120.84
2022-11-14T07:25:09.326Z,101113.47
2022-11-14T07:27:35.523Z,101112.88
2022-11-14T07:30:01.751Z,101101.09
2022-11-14T07:32:27.969Z,101105.09
2022-11-14T07:34:59.256Z,101103.31
2022-11-14T07:37:28.025Z,101102.50
2022-11-14T07:39:54.248Z,101105.09
2022-11-14T07:42:20.453Z,101103.88
2022-11-14T07:44:47.684Z,101099.25
2022-11-14T07:47:14.248Z,101101.25
2022-11-14T07:49:40.703Z,101099.88
2022-11-14T07:52:07.184Z,101104.06
2022-11-14T07:54:33.980Z,101104.66
2022-11-14T07:57:01.401Z,101094.03
2022-11-14T07:59:28.287Z,101102.84
2022-11-14T08:01:54.979Z,101098.22
2022-11-14T08:04:24.684Z,101095.03
2022-11-14T08:06:51.010Z,101091.41
2022-11-14T08:09:18.011Z,101103.63
2022-11-14T08:11:44.364Z,101098.59
2022-11-14T08:14:10.612Z,101108.75
2022-11-14T08:16:36.849Z,101109.72
2022-11-14T08:19:03.055Z,101104.31
2022-11-14T08:21:29.247Z,101104.91
2022-11-14T08:23:55.459Z,101110.47
2022-11-14T08:26:21.662Z,101105.66
2022-11-14T08:28:47.872Z,101108.69
2022-11-14T08:31:14.085Z,101109.03
2022-11-14T08:33:40.297Z,101111.97
2022-11-14T08:36:07.491Z,101115.72
2022-11-14T08:38:34.087Z,101115.91
2022-11-14T08:41:00.699Z,101109.91
2022-11-14T08:43:26.907Z,101120.63
2022-11-14T08:45:53.215Z,101121.31
2022-11-14T08:48:19.418Z,101120.31
2022-11-14T08:50:45.671Z,101124.19
2022-11-14T08:53:11.876Z,101117.69
2022-11-14T08:55:38.110Z,101128.53
2022-11-14T08:58:04.339Z,101113.59
2022-11-14T09:00:30.585Z,101108.88
2022-11-14T09:02:56.901Z,101114.13
2022-11-14T09:05:23.159Z,101111.84
2022-11-14T09:07:49.358Z,101112.31
2022-11-14T09:10:15.921Z,101102.47
2022-11-14T09:12:42.118Z,101089.03
2022-11-14T09:15:08.600Z,101109.56
2022-11-14T09:17:34.881Z,101112.38
2022-11-14T09:20:01.137Z,101111.25
2022-11-14T09:22:27.421Z,101130.03
2022-11-14T09:24:53.938Z,101145.34
2022-11-14T09:27:20.287Z,101156.91
2022-11-14T09:29:46.736Z,101151.63
2022-11-14T09:32:13.401Z,101158.03
2022-11-14T09:34:39.741Z,101163.50
2022-11-14T09:37:05.992Z,101184.00
2022-11-14T09:39:32.304Z,101177.16
2022-11-14T09:42:17.489Z,101180.00
2022-11-14T09:44:49.321Z,101188.78
2022-11-14T09:47:20.460Z,101195.38
2022-11-14T09:49:47.220Z,101182.16
2022-11-14T09:52:13.507Z,101202.28
2022-11-14T09:54:42.214Z,101200.72
2022-11-14T09:57:13.308Z,101200.03
2022-11-14T09:59:39.513Z,101194.69
2022-11-14T10:02:06.238Z,101201.06
2022-11-14T10:04:32.483Z,101192.09
2022-11-14T10:06:58.708Z,101200.88
2022-11-14T10:09:38.101Z,101191.41
2022-11-14T10:12:04.996Z,101184.38
2022-11-14T10:14:35.981Z,101179.88
2022-11-14T10:17:10.895Z,101175.59
2022-11-14T10:20:09.804Z,101173.56
2022-11-14T10:22:42.648Z,101154.75
2022-11-14T10:25:22.748Z,101150.34
2022-11-14T10:28:02.306Z,101145.59
2022-11-14T10:30:41.161Z,101141.84
2022-11-14T10:33:13.086Z,101132.00
2022-11-14T10:35:49.748Z,101140.94
2022-11-14T10:38:18.299Z,101153.94
2022-11-14T10:40:45.639Z,101175.56
2022-11-14T10:43:17.935Z,101148.16
2022-11-14T10:45:46.851Z,101163.78
2022-11-14T10:48:14.410Z,101179.06
2022-11-14T10:50:44.184Z,101169.69
2022-11-14T10:53:25.612Z,101136.09
2022-11-14T10:56:04.093Z,101134.72
2022-11-14T10:58:31.441Z,101115.69
2022-11-14T11:01:20.309Z,101114.19
2022-11-14T11:03:46.534Z,101117.19
2022-11-14T11:06:25.323Z,101125.44
2022-11-14T11:08:51.858Z,101089.13
2022-11-14T11:11:18.299Z,101078.31
2022-11-14T11:13:51.521Z,101070.28
2022-11-14T11:16:19.420Z,101042.69
2022-11-14T11:18:50.554Z,101043.47
2022-11-14T11:21:18.242Z,101042.06
2022-11-14T11:23:48.679Z,101062.03
2022-11-14T11:26:23.508Z,101033.88
2022-11-14T11:29:14.942Z,101061.34
2022-11-14T11:31:46.895Z,101079.47
2022-11-14T11:34:13.114Z,101067.50
2022-11-14T11:36:40.661Z,101063.09
2022-11-14T11:39:08.926Z,101058.69
2022-11-14T11:42:07.595Z,101050.28
2022-11-14T11:44:22.031Z,101064.31
2022-11-14T11:46:48.197Z,101089.19
2022-11-14T11:49:15.980Z,101078.59
2022-11-14T11:51:42.835Z,101080.53
2022-11-14T11:54:14.025Z,101090.75
2022-11-14T11:56:40.236Z,101050.72
2022-11-14T11:59:26.401Z,101064.16
2022-11-14T12:01:52.652Z,101068.63
2022-11-14T12:04:18.876Z,101040.19
2022-11-14T12:06:46.767Z,101043.91
2022-11-14T12:09:19.572Z,101065.81
2022-11-14T12:11:47.888Z,101065.97
2022-11-14T12:14:33.054Z,101061.22
2022-11-14T12:17:09.724Z,101038.94
2022-11-14T12:19:51.304Z,101057.09
2022-11-14T12:22:17.462Z,101070.22
2022-11-14T12:24:50.225Z,101055.78
2022-11-14T12:27:16.417Z,101060.78
2022-11-14T12:29:47.897Z,101057.88
2022-11-14T12:32:15.729Z,101058.91
2022-11-14T12:34:42.928Z,101026.13
2022-11-14T12:37:20.789Z,101029.53
2022-11-14T12:39:57.030Z,101037.41
2022-11-14T12:42:23.244Z,101036.56
2022-11-14T12:44:49.469Z,101021.44
2022-11-14T12:47:19.559Z,101025.44
2022-11-14T12:49:48.774Z,101025.31
2022-11-14T12:52:33.848Z,101047.41
2022-11-14T12:55:00.467Z,101058.53
2022-11-14T12:57:29.016Z,101052.72
2022-11-14T12:59:57.005Z,101058.19
2022-11-14T13:02:29.871Z,101059.06
2022-11-14T13:04:59.041Z,101057.94
2022-11-14T13:07:33.880Z,101069.69
2022-11-14T13:10:09.481Z,101085.31
2022-11-14T13:12:35.779Z,101090.41
2022-11-14T13:15:07.136Z,101086.13
2022-11-14T13:17:33.330Z,101082.50
2022-11-14T13:19:59.636Z,101065.75
2022-11-14T13:22:36.912Z,101065.75
2022-11-14T13:25:03.160Z,101069.94
2022-11-14T13:28:00.038Z,101072.22
2022-11-14T13:30:16.654Z,101069.56
2022-11-14T13:32:42.860Z,101069.66
2022-11-14T13:35:13.388Z,101078.38
2022-11-14T13:37:58.555Z,101069.41
2022-11-14T13:40:43.730Z,101085.56
2022-11-14T13:43:29.102Z,101113.69
2022-11-14T13:46:01.966Z,101106.56
2022-11-14T13:48:47.372Z,101104.75
2022-11-14T13:51:41.697Z,101109.97
2022-11-14T13:54:01.107Z,101088.81
2022-11-14T13:56:56.686Z,101084.00
2022-11-14T13:59:30.604Z,101096.59
2022-11-14T14:02:03.800Z,101103.09
2022-11-14T14:04:29.954Z,101099.16
2022-11-14T14:07:02.395Z,101123.19
2022-11-14T14:09:40.009Z,101121.59
2022-11-14T14:12:17.122Z,101124.72
2022-11-14T14:14:47.985Z,101146.97
2022-11-14T14:17:19.181Z,101143.34
2022-11-14T14:19:48.431Z,101146.41
2022-11-14T14:22:20.559Z,101144.22
2022-11-14T14:24:52.462Z,101152.84
2022-11-14T14:27:18.631Z,101157.50
2022-11-14T14:29:47.924Z,101154.72
2022-11-14T14:32:15.155Z,101145.81
2022-11-14T14:34:41.399Z,101156.78
2022-11-14T14:37:20.637Z,101168.78
2022-11-14T14:40:02.929Z,101172.25
2022-11-14T14:42:39.001Z,101173.03
2022-11-14T14:45:05.453Z,101167.53
2022-11-14T14:47:31.629Z,101167.91
2022-11-14T14:49:58.173Z,101167.22
2022-11-14T14:52:34.674Z,101162.06
2022-11-14T14:55:00.904Z,101164.50
2022-11-14T14:57:27.165Z,101152.16
2022-11-14T15:00:00.279Z,101147.66
2022-11-14T15:02:26.521Z,101147.44
2022-11-14T15:04:52.730Z,101146.84
2022-11-14T15:07:20.069Z,101136.88
2022-11-14T15:09:53.123Z,101128.91
2022-11-14T15:12:19.417Z,101108.78
2022-11-14T15:14:45.621Z,101106.66
2022-11-14T15:17:11.878Z,101104.88
2022-11-14T15:19:42.092Z,101098.25
2022-11-14T15:22:14.325Z,101092.91
2022-11-14T15:24:40.532Z,101064.41
2022-11-14T15:27:19.433Z,101057.19
2022-11-14T15:29:50.198Z,101052.63
2022-11-14T15:32:20.084Z,101046.81
2022-11-14T15:35:06.351Z,101018.88
2022-11-14T15:37:32.575Z,101024.47
2022-11-14T15:40:14.357Z,101004.69
2022-11-14T15:42:40.571Z,101000.09
2022-11-14T15:45:22.290Z,100992.53
2022-11-14T15:47:48.497Z,100987.53
2022-11-14T15:50:14.640Z,100982.31
2022-11-14T15:52:46.033Z,100976.75
2022-11-14T15:55:16.283Z,100964.25
2022-11-14T15:57:48.367Z,100964.84
2022-11-14T16:00:23.633Z,100952.09
2022-11-14T16:02:51.020Z,100953.47
2022-11-14T16:05:17.235Z,100943.09
2022-11-14T16:07:43.442Z,100946.28
2022-11-14T16:10:16.442Z,100922.94
2022-11-14T16:12:43.480Z,100927.75
2022-11-14T16:15:11.968Z,100918.16
2022-11-14T16:17:39.000Z,100913.19
2022-11-14T16:20:05.921Z,100899.03
2022-11-14T16:22:32.132Z,100902.06
2022-11-14T16:25:01.386Z,100892.25
2022-11-14T16:27:27.609Z,100883.69
2022-11-14T16:29:53.808Z,100866.31
2022-11-14T16:32:20.110Z,100870.94
2022-11-14T16:34:46.659Z,100858.38
2022-11-14T16:37:13.093Z,100857.38
2022-11-14T16:39:39.297Z,100837.50
2022-11-14T16:42:05.597Z,100832.91
2022-11-14T16:44:35.800Z,100831.72
2022-11-14T16:47:06.561Z,100821.78
2022-11-14T16:49:32.798Z,100806.44
2022-11-14T16:51:59.027Z,100792.47
2022-11-14T16:54:25.364Z,100789.91
2022-11-14T16:56:51.678Z,100785.31
2022-11-14T16:59:17.921Z,100770.38
2022-11-14T17:01:44.279Z,100760.63
2022-11-14T17:04:10.595Z,100775.13
2022-11-14T17:06:36.805Z,100764.22
2022-11-14T17:09:03.132Z,100753.47
2022-11-14T17:11:29.430Z,100755.44
2022-11-14T17:13:55.694Z,100759.41
2022-11-14T17:16:22.077Z,100751.66
2022-11-14T17:18:52.018Z,100737.31
2022-11-14T17:21:18.230Z,100737.31
2022-11-14T17:23:44.508Z,100727.38
2022-11-14T17:26:10.935Z,100737.16
2022-11-14T17:28:37.202Z,100720.44
2022-11-14T17:31:07.237Z,100727.81
2022-11-14T17:33:33.737Z,100722.56
2022-11-14T17:36:03.943Z,100725.81
2022-11-14T17:38:31.516Z,100719.81
2022-11-14T17:40:57.720Z,100712.88
2022-11-14T17:43:23.920Z,100714.03
2022-11-14T17:45:53.837Z,100706.69
2022-11-14T17:48:20.133Z,100717.03
2022-11-14T17:50:46.341Z,100702.91
2022-11-14T17:53:12.589Z,100705.09
2022-11-14T17:55:38.897Z,100700.72
2022-11-14T17:58:05.177Z,100695.88
2022-11-14T18:00:32.140Z,100695.25
2022-11-14T18:03:01.568Z,100685.44
2022-11-14T18:05:27.828Z,100685.47
2022-11-14T18:07:54.109Z,100669.16
2022-11-14T18:10:20.364Z,100663.59
2022-11-14T18:12:46.584Z,100664.00
2022-11-14T18:15:12.882Z,100654.22
2022-11-14T18:17:39.112Z,100653.84
2022-11-14T18:20:05.582Z,100644.94
2022-11-14T18:22:31.856Z,100650.53
2022-11-14T18:24:58.073Z,100658.28
2022-11-14T18:27:24.337Z,100646.72
2022-11-14T18:29:50.549Z,100650.31
2022-11-14T18:32:16.813Z,100641.72
2022-11-14T18:34:43.046Z,100640.16
2022-11-14T18:37:09.252Z,100632.97
2022-11-14T18:39:35.599Z,100636.97
2022-11-14T18:42:01.872Z,100623.22
2022-11-14T18:44:28.187Z,100620.78
2022-11-14T18:46:54.498Z,100611.19
2022-11-14T18:49:20.721Z,100618.41
2022-11-14T18:51:46.959Z,100615.00
2022-11-14T18:54:13.942Z,100614.66
2022-11-14T18:56:40.181Z,100610.41
2022-11-14T18:59:06.410Z,100602.53
2022-11-14T19:01:32.722Z,100594.94
2022-11-14T19:03:59.865Z,100598.16
2022-11-14T19:06:26.232Z,100586.97
2022-11-14T19:08:56.162Z,100577.63
2022-11-14T19:11:22.388Z,100574.88
2022-11-14T19:13:48.655Z,100566.81
2022-11-14T19:16:14.905Z,100566.16
2022-11-14T19:18:41.108Z,100552.09
2022-11-14T19:21:07.370Z,100556.47
2022-11-14T19:23:33.901Z,100548.88
2022-11-14T19:26:00.677Z,100552.63
2022-11-14T19:28:27.242Z,100546.72
2022-11-14T19:30:53.459Z,100551.28
2022-11-14T19:33:19.661Z,100552.13
2022-11-14T19:35:45.880Z,100553.09
2022-11-14T19:38:12.186Z,100557.47
2022-11-14T19:40:38.398Z,100536.78
2022-11-14T19:43:04.595Z,100541.97
2022-11-14T19:45:33.115Z,100532.19
2022-11-14T19:47:59.313Z,100537.59
2022-11-14T19:50:25.528Z,100534.06
2022-11-14T19:52:51.794Z,100530.28
2022-11-14T19:55:18.309Z,100518.47
2022-11-14T19:57:44.525Z,100518.69
2022-11-14T20:00:10.955Z,100522.50
2022-11-14T20:02:38.227Z,100513.16
2022-11-14T20:05:04.732Z,100508.16
2022-11-14T20:07:31.445Z,100514.56
2022-11-14T20:09:57.736Z,100512.84
2022-11-14T20:12:23.947Z,100517.81
2022-11-14T20:14:50.167Z,100512.56
2022-11-14T20:17:16.384Z,100510.78
2022-11-14T20:19:42.593Z,100501.81
2022-11-14T20:22:08.805Z,100495.22
2022-11-14T20:24:35.003Z,100488.09
2022-11-14T20:27:01.219Z,100490.63
2022-11-14T20:29:27.418Z,100483.88
2022-11-14T20:31:53.651Z,100482.06
2022-11-14T20:34:19.863Z,100475.53
2022-11-14T20:39:32.286Z,100458.59
2022-11-14T20:41:58.510Z,100456.19
2022-11-14T20:44:24.733Z,100447.47
2022-11-14T20:46:50.955Z,100445.84
2022-11-14T20:49:17.163Z,100439.94
2022-11-14T20:51:43.371Z,100441.56
2022-11-14T20:54:09.560Z,100437.78
2022-11-14T20:56:35.765Z,100435.88
2022-11-14T20:59:01.979Z,100442.44
2022-11-14T21:01:28.235Z,100434.34
2022-11-14T21:03:54.468Z,100434.34
2022-11-14T21:06:20.664Z,100424.25
2022-11-14T21:08:46.876Z,100429.78
2022-11-14T21:11:13.659Z,100427.41
2022-11-14T21:13:39.909Z,100416.88
2022-11-14T21:16:06.898Z,100418.25
2022-11-14T21:18:33.722Z,100419.47
2022-11-14T21:21:00.925Z,100412.94
2022-11-14T21:23:27.131Z,100406.53
2022-11-14T21:26:00.122Z,100401.66
2022-11-14T21:28:27.781Z,100398.84
2022-11-14T21:30:54.103Z,100398.00
2022-11-14T21:33:20.319Z,100392.28
2022-11-14T21:35:46.513Z,100381.97
2022-11-14T21:38:12.746Z,100382.22
2022-11-14T21:40:39.417Z,100379.47
2022-11-14T21:43:05.623Z,100374.69
2022-11-14T21:45:31.839Z,100372.09
2022-11-14T21:47:58.053Z,100360.03
2022-11-14T21:50:24.257Z,100367.16
2022-11-14T21:52:50.460Z,100371.50
2022-11-14T21:55:16.661Z,100363.75
2022-11-14T21:57:42.879Z,100370.91
2022-11-14T22:00:09.396Z,100362.91
2022-11-14T22:02:35.614Z,100367.88
2022-11-14T22:05:01.825Z,100352.81
2022-11-14T22:07:28.096Z,100351.41
2022-11-14T22:09:54.325Z,100353.16
2022-11-14T22:12:20.529Z,100356.91
2022-11-14T22:14:46.734Z,100351.78
2022-11-14T22:17:12.949Z,100349.78
2022-11-14T22:19:39.145Z,100344.66
2022-11-14T22:22:05.362Z,100347.66
2022-11-14T22:24:31.613Z,100341.91
2022-11-14T22:26:57.953Z,100338.94
2022-11-14T22:29:24.443Z,100335.16
2022-11-14T22:31:50.742Z,100330.69
2022-11-14T22:34:17.005Z,100324.72
2022-11-14T22:36:43.302Z,100327.09
2022-11-14T22:39:09.512Z,100317.38
2022-11-14T22:41:35.725Z,100313.28
2022-11-14T22:44:01.928Z,100307.34
2022-11-14T22:46:28.197Z,100301.16
2022-11-14T22:48:54.401Z,100298.75
2022-11-14T22:51:21.217Z,100304.84
2022-11-14T22:53:48.064Z,100285.16
2022-11-14T22:56:14.537Z,100282.72
2022-11-14T22:58:41.090Z,100273.22
2022-11-14T23:01:13.883Z,100259.09
2022-11-14T23:03:40.504Z,100254.72
2022-11-14T23:06:10.665Z,100248.75
2022-11-14T23:08:37.010Z,100243.16
2022-11-14T23:11:03.741Z,100239.34
2022-11-14T23:13:30.353Z,100244.38
2022-11-14T23:15:56.779Z,100244.78
2022-11-14T23:18:23.299Z,100226.41
2022-11-14T23:20:49.512Z,100229.50
2022-11-14T23:23:15.752Z,100216.56
2022-11-14T23:25:41.949Z,100206.13
2022-11-14T23:28:08.152Z,100196.31
2022-11-14T23:30:34.572Z,100193.31
2022-11-14T23:33:00.789Z,100185.97
2022-11-14T23:35:26.991Z,100173.63
2022-11-14T23:37:53.196Z,100172.63
2022-11-14T23:40:19.392Z,100172.03
2022-11-14T23:42:45.613Z,100173.31
2022-11-14T23:45:11.820Z,100164.94
2022-11-14T23:47:38.028Z,100166.28
2022-11-14T23:50:04.286Z,100169.88
2022-11-14T23:52:30.509Z,100153.78
2022-11-14T23:54:56.704Z,100164.50
2022-11-14T23:57:22.915Z,100164.56
2022-11-14T23:59:49.118Z,100157.84
